sensor_id;sensor_type;location;lat;lon;timestamp;pressure;altitude;pressure_sealevel;temperature;humidity
17772;BME280;9010;32.624;-96.938;2022-08-25T00:01:53;98941.16;;;28.10;100.00
17772;BME280;9010;32.624;-96.938;2022-08-25T00:04:24;98944.53;;;28.12;100.00
17772;BME280;9010;32.624;-96.938;2022-08-25T00:06:55;98935.34;;;28.07;100.00
17772;BME280;9010;32.624;-96.938;2022-08-25T00:09:25;98937.94;;;28.00;100.00
17772;BME280;9010;32.624;-96.938;2022-08-25T00:11:54;98937.72;;;27.95;100.00
17772;BME280;9010;32.624;-96.938;2022-08-25T00:14:24;98932.72;;;27.92;100.00
17772;BME280;9010;32.624;-96.938;2022-08-25T00:16:53;98934.81;;;27.96;100.00
17772;BME280;9010;32.624;-96.938;2022-08-25T00:19:25;98923.41;;;28.01;100.00
17772;BME280;9010;32.624;-96.938;2022-08-25T00:21:54;98921.22;;;27.83;100.00
17772;BME280;9010;32.624;-96.938;2022-08-25T00:24:23;98930.56;;;27.81;100.00
17772;BME280;9010;32.624;-96.938;2022-08-25T00:26:53;98930.06;;;27.71;100.00
17772;BME280;9010;32.624;-96.938;2022-08-25T00:29:23;98924.81;;;27.63;100.00
17772;BME280;9010;32.624;-96.938;2022-08-25T00:31:52;98939.53;;;27.60;100.00
17772;BME280;9010;32.624;-96.938;2022-08-25T00:34:25;98932.06;;;27.62;100.00
17772;BME280;9010;32.624;-96.938;2022-08-25T00:36:55;98931.38;;;27.54;100.00
17772;BME280;9010;32.624;-96.938;2022-08-25T00:39:25;98933.22;;;27.47;100.00
17772;BME280;9010;32.624;-96.938;2022-08-25T00:41:56;98935.81;;;27.40;100.00
17772;BME280;9010;32.624;-96.938;2022-08-25T00:44:27;98927.47;;;27.35;100.00
17772;BME280;9010;32.624;-96.938;2022-08-25T00:46:58;98938.03;;;27.30;100.00
17772;BME280;9010;32.624;-96.938;2022-08-25T00:49:34;98924.19;;;27.18;100.00
17772;BME280;9010;32.624;-96.938;2022-08-25T00:52:06;98924.97;;;27.12;100.00
17772;BME280;9010;32.624;-96.938;2022-08-25T00:54:39;98937.84;;;27.10;100.00
17772;BME280;9010;32.624;-96.938;2022-08-25T00:57:10;98927.81;;;27.04;100.00
17772;BME280;9010;32.624;-96.938;2022-08-25T00:59:40;98926.88;;;26.97;100.00
17772;BME280;9010;32.624;-96.938;2022-08-25T01:02:09;98932.22;;;26.91;100.00
17772;BME280;9010;32.624;-96.938;2022-08-25T01:04:41;98936.50;;;26.85;100.00
17772;BME280;9010;32.624;-96.938;2022-08-25T01:07:10;98938.78;;;26.81;100.00
17772;BME280;9010;32.624;-96.938;2022-08-25T01:09:39;98934.28;;;26.74;100.00
17772;BME280;9010;32.624;-96.938;2022-08-25T01:12:09;98943.59;;;26.71;100.00
17772;BME280;9010;32.624;-96.938;2022-08-25T01:14:37;98946.66;;;26.68;100.00
17772;BME280;9010;32.624;-96.938;2022-08-25T01:17:06;98949.75;;;26.65;100.00
17772;BME280;9010;32.624;-96.938;2022-08-25T01:19:39;98950.97;;;26.63;100.00
17772;BME280;9010;32.624;-96.938;2022-08-25T01:22:09;98967.53;;;26.60;100.00
17772;BME280;9010;32.624;-96.938;2022-08-25T01:24:41;98967.53;;;26.60;100.00
17772;BME280;9010;32.624;-96.938;2022-08-25T01:27:11;98956.28;;;26.56;100.00
17772;BME280;9010;32.624;-96.938;2022-08-25T01:29:41;98965.97;;;26.51;100.00
17772;BME280;9010;32.624;-96.938;2022-08-25T01:32:11;98975.44;;;26.47;100.00
17772;BME280;9010;32.624;-96.938;2022-08-25T01:34:42;98961.41;;;26.37;100.00
17772;BME280;9010;32.624;-96.938;2022-08-25T01:37:14;98967.84;;;26.36;100.00
17772;BME280;9010;32.624;-96.938;2022-08-25T01:39:44;98965.31;;;26.34;100.00
17772;BME280;9010;32.624;-96.938;2022-08-25T01:42:22;98968.00;;;26.34;100.00
17772;BME280;9010;32.624;-96.938;2022-08-25T01:44:51;98966.63;;;26.23;100.00
17772;BME280;9010;32.624;-96.938;2022-08-25T01:47:20;98979.47;;;26.21;100.00
17772;BME280;9010;32.624;-96.938;2022-08-25T01:49:49;98979.63;;;26.20;100.00
17772;BME280;9010;32.624;-96.938;2022-08-25T01:52:24;98982.69;;;26.17;100.00
17772;BME280;9010;32.624;-96.938;2022-08-25T01:54:54;98995.38;;;26.16;100.00
17772;BME280;9010;32.624;-96.938;2022-08-25T01:57:23;98997.38;;;26.14;100.00
17772;BME280;9010;32.624;-96.938;2022-08-25T01:59:51;99000.94;;;26.15;100.00
17772;BME280;9010;32.624;-96.938;2022-08-25T02:02:19;98999.41;;;26.12;100.00
17772;BME280;9010;32.624;-96.938;2022-08-25T02:04:48;99001.63;;;26.09;100.00
17772;BME280;9010;32.624;-96.938;2022-08-25T02:07:17;99000.13;;;26.06;100.00
17772;BME280;9010;32.624;-96.938;2022-08-25T02:09:47;99008.59;;;26.03;100.00
17772;BME280;9010;32.624;-96.938;2022-08-25T02:12:15;99002.72;;;26.00;100.00
17772;BME280;9010;32.624;-96.938;2022-08-25T02:14:43;99008.56;;;25.89;100.00
17772;BME280;9010;32.624;-96.938;2022-08-25T02:17:11;99014.88;;;25.81;100.00
17772;BME280;9010;32.624;-96.938;2022-08-25T02:19:40;99030.75;;;25.76;100.00
17772;BME280;9010;32.624;-96.938;2022-08-25T02:22:08;99023.53;;;25.77;100.00
17772;BME280;9010;32.624;-96.938;2022-08-25T02:24:37;99020.16;;;25.75;100.00
17772;BME280;9010;32.624;-96.938;2022-08-25T02:27:07;99028.44;;;25.73;100.00
17772;BME280;9010;32.624;-96.938;2022-08-25T02:29:35;99033.16;;;25.71;100.00
17772;BME280;9010;32.624;-96.938;2022-08-25T02:32:04;99035.19;;;25.69;100.00
17772;BME280;9010;32.624;-96.938;2022-08-25T02:34:32;99041.13;;;25.64;100.00
17772;BME280;9010;32.624;-96.938;2022-08-25T02:37:01;99046.09;;;25.53;100.00
17772;BME280;9010;32.624;-96.938;2022-08-25T02:39:31;99049.47;;;25.47;100.00
17772;BME280;9010;32.624;-96.938;2022-08-25T02:41:59;99054.38;;;25.43;100.00
17772;BME280;9010;32.624;-96.938;2022-08-25T02:44:30;99055.22;;;25.44;100.00
17772;BME280;9010;32.624;-96.938;2022-08-25T02:46:58;99050.19;;;25.41;100.00
17772;BME280;9010;32.624;-96.938;2022-08-25T02:49:26;99052.88;;;25.41;100.00
17772;BME280;9010;32.624;-96.938;2022-08-25T02:51:55;99060.94;;;25.41;100.00
17772;BME280;9010;32.624;-96.938;2022-08-25T02:54:24;99055.91;;;25.38;100.00
17772;BME280;9010;32.624;-96.938;2022-08-25T02:56:52;99061.66;;;25.35;100.00
17772;BME280;9010;32.624;-96.938;2022-08-25T02:59:20;99063.69;;;25.33;100.00
17772;BME280;9010;32.624;-96.938;2022-08-25T03:01:50;99062.41;;;25.29;100.00
17772;BME280;9010;32.624;-96.938;2022-08-25T03:04:19;99068.94;;;25.26;100.00
17772;BME280;9010;32.624;-96.938;2022-08-25T03:06:47;99071.34;;;25.21;100.00
17772;BME280;9010;32.624;-96.938;2022-08-25T03:09:15;99070.25;;;25.07;100.00
17772;BME280;9010;32.624;-96.938;2022-08-25T03:11:44;99068.56;;;25.06;100.00
17772;BME280;9010;32.624;-96.938;2022-08-25T03:14:13;99076.47;;;25.08;100.00
17772;BME280;9010;32.624;-96.938;2022-08-25T03:16:41;99072.63;;;25.02;100.00
17772;BME280;9010;32.624;-96.938;2022-08-25T03:19:11;99086.75;;;25.04;100.00
17772;BME280;9010;32.624;-96.938;2022-08-25T03:21:39;99088.44;;;25.05;100.00
17772;BME280;9010;32.624;-96.938;2022-08-25T03:24:08;99087.56;;;25.05;100.00
17772;BME280;9010;32.624;-96.938;2022-08-25T03:26:36;99093.13;;;25.03;100.00
17772;BME280;9010;32.624;-96.938;2022-08-25T03:29:19;99088.59;;;25.04;100.00
17772;BME280;9010;32.624;-96.938;2022-08-25T03:31:49;99085.25;;;25.02;100.00
17772;BME280;9010;32.624;-96.938;2022-08-25T03:34:19;99095.16;;;25.01;100.00
17772;BME280;9010;32.624;-96.938;2022-08-25T03:36:50;99092.47;;;25.01;100.00
17772;BME280;9010;32.624;-96.938;2022-08-25T03:39:21;99095.69;;;24.97;100.00
17772;BME280;9010;32.624;-96.938;2022-08-25T03:41:50;99083.94;;;24.90;100.00
17772;BME280;9010;32.624;-96.938;2022-08-25T03:44:19;99100.94;;;24.90;100.00
17772;BME280;9010;32.624;-96.938;2022-08-25T03:46:50;99096.56;;;24.89;100.00
17772;BME280;9010;32.624;-96.938;2022-08-25T03:49:22;99105.81;;;24.87;100.00
17772;BME280;9010;32.624;-96.938;2022-08-25T03:51:51;99102.47;;;24.85;100.00
17772;BME280;9010;32.624;-96.938;2022-08-25T03:54:22;99105.69;;;24.80;100.00
17772;BME280;9010;32.624;-96.938;2022-08-25T03:56:50;99104.97;;;24.78;100.00
17772;BME280;9010;32.624;-96.938;2022-08-25T03:59:19;99105.34;;;24.83;100.00
17772;BME280;9010;32.624;-96.938;2022-08-25T04:01:47;99106.16;;;24.84;100.00
17772;BME280;9010;32.624;-96.938;2022-08-25T04:04:16;99109.69;;;24.76;100.00
17772;BME280;9010;32.624;-96.938;2022-08-25T04:06:45;99109.03;;;24.74;100.00
17772;BME280;9010;32.624;-96.938;2022-08-25T04:09:14;99109.19;;;24.73;100.00
17772;BME280;9010;32.624;-96.938;2022-08-25T04:11:42;99120.16;;;24.63;100.00
17772;BME280;9010;32.624;-96.938;2022-08-25T04:14:10;99109.56;;;24.62;100.00
17772;BME280;9010;32.624;-96.938;2022-08-25T04:16:39;99111.06;;;24.64;100.00
17772;BME280;9010;32.624;-96.938;2022-08-25T04:19:08;99100.19;;;24.57;100.00
17772;BME280;9010;32.624;-96.938;2022-08-25T04:21:37;99105.06;;;24.54;100.00
17772;BME280;9010;32.624;-96.938;2022-08-25T04:24:08;99105.38;;;24.59;100.00
17772;BME280;9010;32.624;-96.938;2022-08-25T04:26:39;99102.19;;;24.55;100.00
17772;BME280;9010;32.624;-96.938;2022-08-25T04:29:10;99101.38;;;24.47;100.00
17772;BME280;9010;32.624;-96.938;2022-08-25T04:31:41;99110.59;;;24.52;100.00
17772;BME280;9010;32.624;-96.938;2022-08-25T04:34:09;99115.97;;;24.52;100.00
17772;BME280;9010;32.624;-96.938;2022-08-25T04:36:38;99120.53;;;24.44;100.00
17772;BME280;9010;32.624;-96.938;2022-08-25T04:39:08;99123.06;;;24.45;100.00
17772;BME280;9010;32.624;-96.938;2022-08-25T04:41:36;99123.72;;;24.47;100.00
17772;BME280;9010;32.624;-96.938;2022-08-25T04:44:04;99118.34;;;24.47;100.00
17772;BME280;9010;32.624;-96.938;2022-08-25T04:46:33;99110.63;;;24.44;100.00
17772;BME280;9010;32.624;-96.938;2022-08-25T04:49:02;99111.78;;;24.42;100.00
17772;BME280;9010;32.624;-96.938;2022-08-25T04:51:33;99109.97;;;24.34;100.00
17772;BME280;9010;32.624;-96.938;2022-08-25T04:54:03;99121.56;;;24.35;100.00
17772;BME280;9010;32.624;-96.938;2022-08-25T04:56:34;99112.16;;;24.31;100.00
17772;BME280;9010;32.624;-96.938;2022-08-25T04:59:04;99120.91;;;24.17;100.00
17772;BME280;9010;32.624;-96.938;2022-08-25T05:01:33;99120.22;;;24.07;100.00
17772;BME280;9010;32.624;-96.938;2022-08-25T05:04:04;99122.22;;;24.04;100.00
17772;BME280;9010;32.624;-96.938;2022-08-25T05:06:33;99123.91;;;24.06;100.00
17772;BME280;9010;32.624;-96.938;2022-08-25T05:09:01;99121.56;;;24.02;100.00
17772;BME280;9010;32.624;-96.938;2022-08-25T05:11:30;99121.56;;;24.02;100.00
17772;BME280;9010;32.624;-96.938;2022-08-25T05:14:01;99131.31;;;24.03;100.00
17772;BME280;9010;32.624;-96.938;2022-08-25T05:16:30;99126.75;;;24.04;100.00
17772;BME280;9010;32.624;-96.938;2022-08-25T05:18:58;99119.38;;;24.06;100.00
17772;BME280;9010;32.624;-96.938;2022-08-25T05:21:27;99126.94;;;24.02;100.00
17772;BME280;9010;32.624;-96.938;2022-08-25T05:23:56;99128.09;;;24.00;100.00
17772;BME280;9010;32.624;-96.938;2022-08-25T05:26:26;99127.91;;;24.01;100.00
17772;BME280;9010;32.624;-96.938;2022-08-25T05:28:56;99130.63;;;24.01;100.00
17772;BME280;9010;32.624;-96.938;2022-08-25T05:31:26;99124.56;;;23.99;100.00
17772;BME280;9010;32.624;-96.938;2022-08-25T05:33:55;99127.44;;;23.98;100.00
17772;BME280;9010;32.624;-96.938;2022-08-25T05:36:25;99126.94;;;23.94;100.00
17772;BME280;9010;32.624;-96.938;2022-08-25T05:38:54;99135.00;;;23.94;100.00
17772;BME280;9010;32.624;-96.938;2022-08-25T05:41:26;99141.03;;;23.96;100.00
17772;BME280;9010;32.624;-96.938;2022-08-25T05:43:55;99135.00;;;23.94;100.00
17772;BME280;9010;32.624;-96.938;2022-08-25T05:46:25;99136.50;;;23.97;100.00
17772;BME280;9010;32.624;-96.938;2022-08-25T05:48:54;99131.28;;;23.95;100.00
17772;BME280;9010;32.624;-96.938;2022-08-25T05:51:22;99140.69;;;23.91;100.00
17772;BME280;9010;32.624;-96.938;2022-08-25T05:53:50;99143.38;;;23.91;100.00
17772;BME280;9010;32.624;-96.938;2022-08-25T05:56:19;99141.69;;;23.90;100.00
17772;BME280;9010;32.624;-96.938;2022-08-25T05:58:47;99148.09;;;23.89;100.00
17772;BME280;9010;32.624;-96.938;2022-08-25T06:01:22;99148.41;;;23.86;100.00
17772;BME280;9010;32.624;-96.938;2022-08-25T06:04:09;99145.03;;;23.84;100.00
17772;BME280;9010;32.624;-96.938;2022-08-25T06:06:38;99148.91;;;23.82;100.00
17772;BME280;9010;32.624;-96.938;2022-08-25T06:09:07;99139.50;;;23.78;100.00
17772;BME280;9010;32.624;-96.938;2022-08-25T06:11:37;99151.59;;;23.82;100.00
17772;BME280;9010;32.624;-96.938;2022-08-25T06:14:06;99156.44;;;23.78;100.00
17772;BME280;9010;32.624;-96.938;2022-08-25T06:16:34;99152.75;;;23.79;100.00
17772;BME280;9010;32.624;-96.938;2022-08-25T06:19:02;99157.47;;;23.77;100.00
17772;BME280;9010;32.624;-96.938;2022-08-25T06:21:32;99150.75;;;23.73;100.00
17772;BME280;9010;32.624;-96.938;2022-08-25T06:24:00;99152.09;;;23.69;100.00
17772;BME280;9010;32.624;-96.938;2022-08-25T06:26:29;99162.63;;;23.63;100.00
17772;BME280;9010;32.624;-96.938;2022-08-25T06:28:57;99159.78;;;23.64;100.00
17772;BME280;9010;32.624;-96.938;2022-08-25T06:31:25;99159.44;;;23.67;100.00
17772;BME280;9010;32.624;-96.938;2022-08-25T06:33:53;99151.72;;;23.64;100.00
17772;BME280;9010;32.624;-96.938;2022-08-25T06:36:23;99157.78;;;23.66;100.00
17772;BME280;9010;32.624;-96.938;2022-08-25T06:38:53;99159.63;;;23.66;100.00
17772;BME280;9010;32.624;-96.938;2022-08-25T06:41:21;99161.47;;;23.65;100.00
17772;BME280;9010;32.624;-96.938;2022-08-25T06:43:50;99157.94;;;23.65;100.00
17772;BME280;9010;32.624;-96.938;2022-08-25T06:46:21;99159.09;;;23.62;100.00
17772;BME280;9010;32.624;-96.938;2022-08-25T06:48:49;99156.44;;;23.62;100.00
17772;BME280;9010;32.624;-96.938;2022-08-25T06:51:18;99148.69;;;23.59;100.00
17772;BME280;9010;32.624;-96.938;2022-08-25T06:53:48;99157.78;;;23.58;100.00
17772;BME280;9010;32.624;-96.938;2022-08-25T06:56:21;99158.78;;;23.57;100.00
17772;BME280;9010;32.624;-96.938;2022-08-25T06:58:49;99159.75;;;23.56;100.00
17772;BME280;9010;32.624;-96.938;2022-08-25T07:01:19;99155.09;;;23.58;100.00
17772;BME280;9010;32.624;-96.938;2022-08-25T07:03:49;99160.78;;;23.55;100.00
17772;BME280;9010;32.624;-96.938;2022-08-25T07:06:18;99161.13;;;23.52;100.00
17772;BME280;9010;32.624;-96.938;2022-08-25T07:08:46;99159.41;;;23.43;100.00
17772;BME280;9010;32.624;-96.938;2022-08-25T07:11:15;99153.38;;;23.41;100.00
17772;BME280;9010;32.624;-96.938;2022-08-25T07:13:48;99155.72;;;23.44;100.00
17772;BME280;9010;32.624;-96.938;2022-08-25T07:16:17;99160.06;;;23.45;100.00
17772;BME280;9010;32.624;-96.938;2022-08-25T07:18:46;99161.75;;;23.46;100.00
17772;BME280;9010;32.624;-96.938;2022-08-25T07:21:15;99156.72;;;23.43;100.00
17772;BME280;9010;32.624;-96.938;2022-08-25T07:23:43;99161.56;;;23.39;100.00
17772;BME280;9010;32.624;-96.938;2022-08-25T07:26:13;99154.66;;;23.37;100.00
17772;BME280;9010;32.624;-96.938;2022-08-25T07:28:43;99154.38;;;23.40;100.00
17772;BME280;9010;32.624;-96.938;2022-08-25T07:31:13;99158.56;;;23.42;100.00
17772;BME280;9010;32.624;-96.938;2022-08-25T07:33:41;99157.72;;;23.42;100.00
17772;BME280;9010;32.624;-96.938;2022-08-25T07:36:30;99154.84;;;23.35;100.00
17772;BME280;9010;32.624;-96.938;2022-08-25T07:38:57;99157.34;;;23.37;100.00
17772;BME280;9010;32.624;-96.938;2022-08-25T07:41:29;99159.34;;;23.35;100.00
17772;BME280;9010;32.624;-96.938;2022-08-25T07:43:58;99149.78;;;23.32;100.00
17772;BME280;9010;32.624;-96.938;2022-08-25T07:46:27;99158.00;;;23.31;100.00
17772;BME280;9010;32.624;-96.938;2022-08-25T07:48:56;99152.94;;;23.28;100.00
17772;BME280;9010;32.624;-96.938;2022-08-25T07:51:24;99146.38;;;23.22;100.00
17772;BME280;9010;32.624;-96.938;2022-08-25T07:53:52;99144.22;;;23.26;100.00
17772;BME280;9010;32.624;-96.938;2022-08-25T07:56:20;99142.03;;;23.21;100.00
17772;BME280;9010;32.624;-96.938;2022-08-25T07:58:49;99138.50;;;23.13;100.00
17772;BME280;9010;32.624;-96.938;2022-08-25T08:01:19;99140.16;;;23.14;100.00
17772;BME280;9010;32.624;-96.938;2022-08-25T08:03:50;99136.47;;;23.15;100.00
17772;BME280;9010;32.624;-96.938;2022-08-25T08:06:20;99140.84;;;23.16;100.00
17772;BME280;9010;32.624;-96.938;2022-08-25T08:08:51;99136.13;;;23.10;100.00
17772;BME280;9010;32.624;-96.938;2022-08-25T08:11:21;99137.44;;;23.06;100.00
17772;BME280;9010;32.624;-96.938;2022-08-25T08:13:51;99138.44;;;23.05;100.00
17772;BME280;9010;32.624;-96.938;2022-08-25T08:16:21;99139.28;;;23.05;100.00
17772;BME280;9010;32.624;-96.938;2022-08-25T08:18:51;99140.78;;;23.08;100.00
17772;BME280;9010;32.624;-96.938;2022-08-25T08:21:22;99139.47;;;23.12;100.00
17772;BME280;9010;32.624;-96.938;2022-08-25T08:23:52;99139.81;;;23.09;100.00
17772;BME280;9010;32.624;-96.938;2022-08-25T08:26:20;99133.44;;;23.10;100.00
17772;BME280;9010;32.624;-96.938;2022-08-25T08:28:49;99127.38;;;23.08;100.00
17772;BME280;9010;32.624;-96.938;2022-08-25T08:31:18;99125.03;;;23.05;100.00
17772;BME280;9010;32.624;-96.938;2022-08-25T08:33:46;99120.03;;;23.10;100.00
17772;BME280;9010;32.624;-96.938;2022-08-25T08:36:17;99130.06;;;23.08;100.00
17772;BME280;9010;32.624;-96.938;2022-08-25T08:38:46;99123.38;;;23.04;100.00
17772;BME280;9010;32.624;-96.938;2022-08-25T08:41:28;99129.91;;;23.09;100.00
17772;BME280;9010;32.624;-96.938;2022-08-25T08:44:22;99128.41;;;23.07;100.00
17772;BME280;9010;32.624;-96.938;2022-08-25T08:47:03;99137.44;;;23.06;100.00
17772;BME280;9010;32.624;-96.938;2022-08-25T08:49:36;99132.41;;;23.03;100.00
17772;BME280;9010;32.624;-96.938;2022-08-25T08:52:09;99138.75;;;23.02;100.00
17772;BME280;9010;32.624;-96.938;2022-08-25T08:54:41;99133.38;;;23.02;100.00
17772;BME280;9010;32.624;-96.938;2022-08-25T08:57:14;99135.72;;;22.97;100.00
17772;BME280;9010;32.624;-96.938;2022-08-25T08:59:49;99133.34;;;22.94;100.00
17772;BME280;9010;32.624;-96.938;2022-08-25T09:02:24;99140.22;;;22.88;100.00
17772;BME280;9010;32.624;-96.938;2022-08-25T09:04:56;99136.19;;;22.84;100.00
17772;BME280;9010;32.624;-96.938;2022-08-25T09:07:30;99136.00;;;22.85;100.00
17772;BME280;9010;32.624;-96.938;2022-08-25T09:10:02;99138.38;;;22.88;100.00
17772;BME280;9010;32.624;-96.938;2022-08-25T09:12:34;99146.59;;;22.87;100.00
17772;BME280;9010;32.624;-96.938;2022-08-25T09:15:15;99147.59;;;22.86;100.00
17772;BME280;9010;32.624;-96.938;2022-08-25T09:17:58;99143.91;;;22.87;100.00
17772;BME280;9010;32.624;-96.938;2022-08-25T09:20:47;99139.72;;;22.84;100.00
17772;BME280;9010;32.624;-96.938;2022-08-25T09:23:38;99148.44;;;22.86;100.00
17772;BME280;9010;32.624;-96.938;2022-08-25T09:26:20;99153.44;;;22.81;100.00
17772;BME280;9010;32.624;-96.938;2022-08-25T09:28:57;99152.72;;;22.79;100.00
17772;BME280;9010;32.624;-96.938;2022-08-25T09:31:31;99149.91;;;22.81;100.00
17772;BME280;9010;32.624;-96.938;2022-08-25T09:34:03;99164.16;;;22.81;100.00
17772;BME280;9010;32.624;-96.938;2022-08-25T09:36:32;99159.78;;;22.80;100.00
17772;BME280;9010;32.624;-96.938;2022-08-25T09:39:03;99160.94;;;22.78;100.00
17772;BME280;9010;32.624;-96.938;2022-08-25T09:41:40;99162.78;;;22.77;100.00
17772;BME280;9010;32.624;-96.938;2022-08-25T09:44:18;99171.50;;;22.79;100.00
17772;BME280;9010;32.624;-96.938;2022-08-25T09:46:58;99164.78;;;22.75;100.00
17772;BME280;9010;32.624;-96.938;2022-08-25T09:49:41;99168.31;;;22.76;100.00
17772;BME280;9010;32.624;-96.938;2022-08-25T09:52:21;99156.53;;;22.69;100.00
17772;BME280;9010;32.624;-96.938;2022-08-25T09:54:52;99156.72;;;22.67;100.00
17772;BME280;9010;32.624;-96.938;2022-08-25T09:57:30;99161.06;;;22.68;100.00
17772;BME280;9010;32.624;-96.938;2022-08-25T10:00:13;99161.38;;;22.65;100.00
17772;BME280;9010;32.624;-96.938;2022-08-25T10:02:42;99160.53;;;22.65;100.00
17772;BME280;9010;32.624;-96.938;2022-08-25T10:05:21;99158.38;;;22.68;100.00
17772;BME280;9010;32.624;-96.938;2022-08-25T10:07:53;99168.09;;;22.69;100.00
17772;BME280;9010;32.624;-96.938;2022-08-25T10:10:28;99160.22;;;22.68;100.00
17772;BME280;9010;32.624;-96.938;2022-08-25T10:12:57;99174.06;;;22.63;100.00
17772;BME280;9010;32.624;-96.938;2022-08-25T10:15:29;99167.00;;;22.62;100.00
17772;BME280;9010;32.624;-96.938;2022-08-25T10:18:21;99168.03;;;22.61;100.00
17772;BME280;9010;32.624;-96.938;2022-08-25T10:21:11;99171.03;;;22.58;100.00
17772;BME280;9010;32.624;-96.938;2022-08-25T10:23:43;99159.78;;;22.55;100.00
17772;BME280;9010;32.624;-96.938;2022-08-25T10:26:22;99162.13;;;22.58;100.00
17772;BME280;9010;32.624;-96.938;2022-08-25T10:29:04;99155.78;;;22.59;100.00
17772;BME280;9010;32.624;-96.938;2022-08-25T10:31:35;99165.66;;;22.58;100.00
17772;BME280;9010;32.624;-96.938;2022-08-25T10:34:24;99158.59;;;22.57;100.00
17772;BME280;9010;32.624;-96.938;2022-08-25T10:37:01;99163.97;;;22.57;100.00
17772;BME280;9010;32.624;-96.938;2022-08-25T10:39:38;99168.47;;;22.57;100.00
17772;BME280;9010;32.624;-96.938;2022-08-25T10:42:31;99173.16;;;22.55;100.00
17772;BME280;9010;32.624;-96.938;2022-08-25T10:45:19;99172.28;;;22.46;100.00
17772;BME280;9010;32.624;-96.938;2022-08-25T10:51:13;99173.97;;;22.47;100.00
17772;BME280;9010;32.624;-96.938;2022-08-25T10:53:54;99173.13;;;22.47;100.00
17772;BME280;9010;32.624;-96.938;2022-08-25T10:56:26;99170.75;;;22.44;100.00
17772;BME280;9010;32.624;-96.938;2022-08-25T10:59:22;99174.28;;;22.44;100.00
17772;BME280;9010;32.624;-96.938;2022-08-25T11:02:09;99178.94;;;22.42;100.00
17772;BME280;9010;32.624;-96.938;2022-08-25T11:04:45;99171.25;;;22.39;100.00
17772;BME280;9010;32.624;-96.938;2022-08-25T11:07:19;99183.63;;;22.40;100.00
17772;BME280;9010;32.624;-96.938;2022-08-25T11:09:52;99184.47;;;22.41;100.00
17772;BME280;9010;32.624;-96.938;2022-08-25T11:12:28;99182.25;;;22.36;100.00
17772;BME280;9010;32.624;-96.938;2022-08-25T11:15:02;99186.59;;;22.37;100.00
17772;BME280;9010;32.624;-96.938;2022-08-25T11:17:39;99188.28;;;22.38;100.00
17772;BME280;9010;32.624;-96.938;2022-08-25T11:20:13;99183.38;;;22.33;100.00
17772;BME280;9010;32.624;-96.938;2022-08-25T11:22:45;99189.28;;;22.37;100.00
17772;BME280;9010;32.624;-96.938;2022-08-25T11:25:19;99190.31;;;22.36;100.00
17772;BME280;9010;32.624;-96.938;2022-08-25T11:27:58;99191.97;;;22.37;100.00
17772;BME280;9010;32.624;-96.938;2022-08-25T11:30:30;99202.00;;;22.35;100.00
17772;BME280;9010;32.624;-96.938;2022-08-25T11:32:59;99206.81;;;22.31;100.00
17772;BME280;9010;32.624;-96.938;2022-08-25T11:35:30;99199.28;;;22.27;100.00
17772;BME280;9010;32.624;-96.938;2022-08-25T11:38:15;99202.88;;;22.18;100.00
17772;BME280;9010;32.624;-96.938;2022-08-25T11:40:52;99202.19;;;22.16;100.00
17772;BME280;9010;32.624;-96.938;2022-08-25T11:46:25;99205.78;;;22.24;100.00
17772;BME280;9010;32.624;-96.938;2022-08-25T11:49:12;99217.00;;;22.28;100.00
17772;BME280;9010;32.624;-96.938;2022-08-25T11:51:48;99215.34;;;22.27;100.00
17772;BME280;9010;32.624;-96.938;2022-08-25T11:54:23;99226.06;;;22.27;100.00
17772;BME280;9010;32.624;-96.938;2022-08-25T11:56:58;99218.88;;;22.27;100.00
17772;BME280;9010;32.624;-96.938;2022-08-25T12:00:03;99223.38;;;22.27;100.00
17772;BME280;9010;32.624;-96.938;2022-08-25T12:02:37;99230.41;;;22.28;100.00
17772;BME280;9010;32.624;-96.938;2022-08-25T12:05:08;99231.41;;;22.27;100.00
17772;BME280;9010;32.624;-96.938;2022-08-25T12:07:59;99236.41;;;22.22;100.00
17772;BME280;9010;32.624;-96.938;2022-08-25T12:10:56;99234.84;;;22.19;100.00
17772;BME280;9010;32.624;-96.938;2022-08-25T12:13:40;99241.22;;;22.18;100.00
17772;BME280;9010;32.624;-96.938;2022-08-25T12:16:40;99241.03;;;22.20;100.00
17772;BME280;9010;32.624;-96.938;2022-08-25T12:19:47;99246.56;;;22.18;100.00
17772;BME280;9010;32.624;-96.938;2022-08-25T12:25:47;99261.56;;;22.29;100.00
17772;BME280;9010;32.624;-96.938;2022-08-25T12:31:33;99259.56;;;22.31;100.00
17772;BME280;9010;32.624;-96.938;2022-08-25T12:34:16;99257.13;;;22.38;100.00
17772;BME280;9010;32.624;-96.938;2022-08-25T12:37:00;99251.09;;;22.36;100.00
17772;BME280;9010;32.624;-96.938;2022-08-25T12:39:34;99270.75;;;22.44;100.00
17772;BME280;9010;32.624;-96.938;2022-08-25T12:42:04;99267.75;;;22.47;100.00
17772;BME280;9010;32.624;-96.938;2022-08-25T12:44:38;99270.81;;;22.52;100.00
17772;BME280;9010;32.624;-96.938;2022-08-25T12:47:24;99267.81;;;22.55;100.00
17772;BME280;9010;32.624;-96.938;2022-08-25T12:52:38;99271.53;;;22.62;100.00
17772;BME280;9010;32.624;-96.938;2022-08-25T12:55:08;99267.28;;;22.69;100.00
17772;BME280;9010;32.624;-96.938;2022-08-25T12:57:42;99274.72;;;22.75;100.00
17772;BME280;9010;32.624;-96.938;2022-08-25T13:00:16;99279.47;;;22.81;100.00
17772;BME280;9010;32.624;-96.938;2022-08-25T13:03:07;99274.47;;;22.86;100.00
17772;BME280;9010;32.624;-96.938;2022-08-25T13:05:53;99276.50;;;22.93;100.00
17772;BME280;9010;32.624;-96.938;2022-08-25T13:08:48;99289.81;;;23.02;100.00
17772;BME280;9010;32.624;-96.938;2022-08-25T13:11:26;99281.31;;;23.07;100.00
17772;BME280;9010;32.624;-96.938;2022-08-25T13:14:06;99286.72;;;23.15;100.00
17772;BME280;9010;32.624;-96.938;2022-08-25T13:16:38;99283.22;;;23.22;100.00
17772;BME280;9010;32.624;-96.938;2022-08-25T13:19:06;99279.75;;;23.30;100.00
17772;BME280;9010;32.624;-96.938;2022-08-25T13:21:45;99289.69;;;23.37;100.00
17772;BME280;9010;32.624;-96.938;2022-08-25T13:24:18;99285.22;;;23.46;100.00